createdAt,value
2018-09-24T00:02:12.434Z,11.33
2018-09-24T00:04:41.382Z,11.32
2018-09-24T00:07:10.296Z,11.28
2018-09-24T00:09:51.543Z,11.30
2018-09-24T00:12:20.435Z,11.33
2018-09-24T00:14:49.439Z,11.36
2018-09-24T00:17:18.389Z,11.34
2018-09-24T00:19:47.561Z,11.18
2018-09-24T00:22:16.498Z,11.26
2018-09-24T00:24:45.459Z,11.29
2018-09-24T00:27:16.409Z,11.23
2018-09-24T00:29:45.317Z,11.26
2018-09-24T00:32:14.587Z,11.25
2018-09-24T00:34:43.792Z,11.09
2018-09-24T00:37:19.936Z,11.04
2018-09-24T00:39:49.862Z,11.12
2018-09-24T00:42:18.782Z,11.19
2018-09-24T00:44:47.675Z,11.15
2018-09-24T00:47:16.561Z,11.16
2018-09-24T00:49:47.578Z,11.08
2018-09-24T00:52:22.005Z,11.12
2018-09-24T00:54:55.306Z,11.16
2018-09-24T00:57:24.194Z,11.07
2018-09-24T00:59:53.286Z,11.07
2018-09-24T01:02:22.180Z,11.08
2018-09-24T01:05:06.294Z,11.13
2018-09-24T01:07:35.194Z,11.10
2018-09-24T01:10:04.134Z,11.18
2018-09-24T01:12:33.049Z,11.17
2018-09-24T01:15:02.172Z,11.12
2018-09-24T01:17:31.292Z,11.25
2018-09-24T01:20:00.202Z,11.23
2018-09-24T01:22:34.810Z,11.10
2018-09-24T01:25:04.144Z,11.20
2018-09-24T01:27:39.089Z,11.11
2018-09-24T01:30:31.082Z,11.07
2018-09-24T01:33:00.023Z,11.16
2018-09-24T01:35:41.696Z,11.14
2018-09-24T01:38:24.385Z,11.11
2018-09-24T01:40:53.239Z,11.12
2018-09-24T01:43:22.181Z,11.10
2018-09-24T01:45:52.191Z,11.13
2018-09-24T01:48:21.100Z,11.07
2018-09-24T01:50:50.000Z,11.11
2018-09-24T01:53:18.918Z,11.07
2018-09-24T01:55:50.736Z,11.00
2018-09-24T01:58:19.828Z,10.94
2018-09-24T02:00:58.434Z,10.96
2018-09-24T02:03:34.436Z,11.04
2018-09-24T02:06:04.099Z,11.02
2018-09-24T02:08:33.464Z,10.90
2018-09-24T02:11:08.279Z,10.91
2018-09-24T02:13:46.083Z,10.91
2018-09-24T02:16:15.321Z,10.88
2018-09-24T02:18:44.590Z,10.85
2018-09-24T02:21:13.533Z,10.91
2018-09-24T02:23:42.609Z,10.89
2018-09-24T02:26:13.597Z,10.84
2018-09-24T02:28:46.953Z,10.85
2018-09-24T02:31:15.869Z,10.89
2018-09-24T02:33:44.723Z,10.89
2018-09-24T02:36:13.800Z,10.91
2018-09-24T02:38:48.482Z,10.83
2018-09-24T02:41:17.388Z,10.70
2018-09-24T02:43:46.367Z,10.76
2018-09-24T02:46:15.397Z,10.79
2018-09-24T02:48:44.296Z,10.82
2018-09-24T02:51:16.752Z,10.75
2018-09-24T02:53:45.654Z,10.81
2018-09-24T02:56:21.041Z,10.80
2018-09-24T02:58:49.950Z,10.71
2018-09-24T03:01:19.021Z,10.63
2018-09-24T03:03:52.934Z,10.70
2018-09-24T03:06:21.839Z,10.59
2018-09-24T03:08:50.719Z,10.62
2018-09-24T03:11:19.629Z,10.61
2018-09-24T03:13:48.593Z,10.57
2018-09-24T03:16:17.508Z,10.56
2018-09-24T03:18:55.117Z,10.57
2018-09-24T03:21:24.185Z,10.56
2018-09-24T03:23:53.183Z,10.49
2018-09-24T03:26:22.211Z,10.46
2018-09-24T03:28:52.157Z,10.48
2018-09-24T03:31:21.048Z,10.37
2018-09-24T03:33:50.083Z,10.39
2018-09-24T03:36:19.048Z,10.41
2018-09-24T03:38:48.134Z,10.43
2018-09-24T03:41:17.749Z,10.38
2018-09-24T03:43:46.911Z,10.37
2018-09-24T03:46:15.879Z,10.43
2018-09-24T03:48:44.826Z,10.36
2018-09-24T03:51:14.935Z,10.30
2018-09-24T03:53:43.861Z,10.32
2018-09-24T03:56:16.029Z,10.22
2018-09-24T03:58:48.680Z,10.24
2018-09-24T04:01:18.777Z,10.15
2018-09-24T04:03:47.777Z,10.16
2018-09-24T04:06:26.309Z,10.13
2018-09-24T04:09:00.655Z,10.10
2018-09-24T04:11:37.082Z,10.18
2018-09-24T04:14:11.226Z,10.23
2018-09-24T04:16:58.491Z,10.13
2018-09-24T04:19:34.895Z,10.05
2018-09-24T04:22:14.730Z,10.13
2018-09-24T04:24:49.998Z,10.11
2018-09-24T04:27:24.493Z,10.13
2018-09-24T04:30:02.157Z,10.13
2018-09-24T04:32:40.981Z,9.89
2018-09-24T04:35:15.643Z,9.81
2018-09-24T04:37:50.042Z,9.91
2018-09-24T04:40:24.296Z,9.80
2018-09-24T04:42:58.893Z,9.73
2018-09-24T04:45:35.247Z,9.72
2018-09-24T04:48:09.582Z,9.92
2018-09-24T04:50:47.014Z,9.99
2018-09-24T04:53:23.200Z,10.00
2018-09-24T04:55:57.377Z,9.73
2018-09-24T04:58:31.699Z,9.81
2018-09-24T05:01:05.924Z,9.89
2018-09-24T05:03:41.302Z,9.95
2018-09-24T05:06:16.762Z,9.89
2018-09-24T05:08:50.908Z,9.92
2018-09-24T05:11:30.073Z,9.99
2018-09-24T05:14:11.794Z,9.97
2018-09-24T05:16:46.102Z,9.85
2018-09-24T05:19:20.533Z,9.89
2018-09-24T05:21:54.618Z,9.89
2018-09-24T05:24:33.589Z,9.92
2018-09-24T05:27:07.867Z,10.01
2018-09-24T05:29:42.264Z,10.03
2018-09-24T05:32:16.522Z,9.96
2018-09-24T05:34:57.973Z,10.11
2018-09-24T05:37:34.158Z,10.17
2018-09-24T05:40:08.513Z,10.10
2018-09-24T05:42:43.842Z,10.05
2018-09-24T05:45:18.369Z,10.03
2018-09-24T05:48:00.007Z,10.06
2018-09-24T05:50:39.592Z,10.08
2018-09-24T05:53:13.641Z,10.22
2018-09-24T05:55:51.616Z,10.29
2018-09-24T05:58:31.890Z,10.39
2018-09-24T06:01:06.151Z,10.35
2018-09-24T06:03:40.486Z,10.35
2018-09-24T06:06:20.419Z,10.27
2018-09-24T06:08:55.799Z,10.41
2018-09-24T06:11:31.253Z,10.23
2018-09-24T06:14:09.868Z,10.28
2018-09-24T06:16:44.163Z,10.28
2018-09-24T06:19:18.565Z,10.40
2018-09-24T06:21:52.905Z,10.34
2018-09-24T06:24:28.259Z,10.35
2018-09-24T06:27:04.602Z,10.34
2018-09-24T06:29:44.776Z,10.42
2018-09-24T06:32:19.176Z,10.41
2018-09-24T06:34:59.673Z,10.22
2018-09-24T06:37:33.751Z,10.31
2018-09-24T06:43:03.177Z,10.67
2018-09-24T06:45:41.471Z,10.63
2018-09-24T06:48:15.724Z,10.58
2018-09-24T06:50:49.956Z,10.64
2018-09-24T06:53:24.339Z,10.77
2018-09-24T06:55:58.651Z,10.76
2018-09-24T06:58:43.867Z,10.58
2018-09-24T07:01:23.904Z,10.69
2018-09-24T07:04:04.784Z,10.75
2018-09-24T07:06:39.148Z,10.56
2018-09-24T07:09:14.131Z,10.74
2018-09-24T07:11:48.566Z,10.86
2018-09-24T07:14:31.244Z,11.01
2018-09-24T07:17:05.479Z,10.95
2018-09-24T07:19:50.684Z,11.08
2018-09-24T07:22:25.074Z,11.21
2018-09-24T07:25:01.377Z,11.22
2018-09-24T07:27:43.204Z,11.20
2018-09-24T07:30:18.873Z,11.22
2018-09-24T07:32:58.825Z,11.38
2018-09-24T07:35:38.660Z,11.33
2018-09-24T07:38:15.978Z,11.40
2018-09-24T07:41:00.577Z,11.44
2018-09-24T07:43:39.715Z,11.51
2018-09-24T07:46:14.134Z,11.46
2018-09-24T07:48:53.929Z,11.55
2018-09-24T07:51:34.587Z,11.60
2018-09-24T07:54:14.340Z,11.70
2018-09-24T07:56:49.642Z,11.56
2018-09-24T07:59:24.033Z,11.47
2018-09-24T08:01:58.390Z,11.54
2018-09-24T08:04:38.741Z,11.75
2018-09-24T08:07:14.125Z,11.74
2018-09-24T08:09:55.487Z,11.82
2018-09-24T08:12:47.604Z,11.88
2018-09-24T08:15:23.816Z,11.95
2018-09-24T08:17:58.083Z,11.85
2018-09-24T08:20:32.417Z,11.91
2018-09-24T08:23:23.534Z,12.07
2018-09-24T08:26:03.241Z,12.06
2018-09-24T08:28:38.432Z,12.16
2018-09-24T08:31:12.816Z,12.23
2018-09-24T08:33:47.155Z,12.26
2018-09-24T08:36:25.928Z,12.34
2018-09-24T08:39:08.240Z,12.32
2018-09-24T08:41:46.951Z,12.35
2018-09-24T08:44:21.217Z,12.33
2018-09-24T08:46:56.592Z,12.35
2018-09-24T08:49:31.868Z,12.37
2018-09-24T08:52:07.142Z,12.46
2018-09-24T08:54:46.495Z,12.50
2018-09-24T08:57:20.728Z,12.56
2018-09-24T08:59:58.143Z,12.70
2018-09-24T09:02:38.677Z,12.68
2018-09-24T09:05:18.958Z,12.81
2018-09-24T09:07:55.275Z,12.81
2018-09-24T09:10:29.458Z,12.81
2018-09-24T09:13:05.761Z,12.88
2018-09-24T09:15:41.014Z,12.90
2018-09-24T09:18:15.402Z,12.99
2018-09-24T09:20:49.609Z,12.98
2018-09-24T09:23:29.844Z,13.00
2018-09-24T09:26:07.225Z,13.06
2018-09-24T09:28:45.482Z,13.08
2018-09-24T09:31:19.826Z,13.02
2018-09-24T09:33:55.194Z,13.73
2018-09-24T09:36:31.534Z,13.53
2018-09-24T09:39:05.757Z,13.42
2018-09-24T09:41:41.055Z,13.38
2018-09-24T09:44:15.293Z,13.36
2018-09-24T09:47:00.319Z,13.37
2018-09-24T09:49:35.622Z,13.33
2018-09-24T09:52:13.797Z,13.33
2018-09-24T09:54:50.161Z,13.38
2018-09-24T09:57:26.561Z,13.46
2018-09-24T10:00:18.503Z,13.43
2018-09-24T10:02:54.780Z,13.44
2018-09-24T10:05:34.243Z,13.47
2018-09-24T10:08:18.594Z,13.71
2018-09-24T10:11:00.641Z,13.81
2018-09-24T10:13:35.085Z,13.94
2018-09-24T10:16:12.772Z,13.88
2018-09-24T10:18:48.242Z,13.89
2018-09-24T10:21:23.688Z,13.82
2018-09-24T10:23:58.911Z,13.82
2018-09-24T10:26:38.477Z,13.78
2018-09-24T10:29:27.917Z,13.82
2018-09-24T10:32:08.977Z,13.92
2018-09-24T10:34:43.393Z,13.97
2018-09-24T10:37:21.669Z,14.04
2018-09-24T10:39:57.037Z,14.04
2018-09-24T10:42:33.270Z,13.98
2018-09-24T10:45:07.560Z,14.15
2018-09-24T10:47:42.926Z,14.10
2018-09-24T10:50:30.418Z,14.06
2018-09-24T10:53:08.372Z,14.19
2018-09-24T10:55:44.801Z,14.27
2018-09-24T10:58:20.022Z,14.25
2018-09-24T11:00:56.504Z,14.25
2018-09-24T11:03:36.246Z,14.36
2018-09-24T11:06:13.655Z,14.41
2018-09-24T11:08:52.481Z,14.48
2018-09-24T11:11:26.828Z,14.35
2018-09-24T11:14:01.077Z,14.45
2018-09-24T11:16:42.177Z,14.49
2018-09-24T11:19:16.187Z,14.42
2018-09-24T11:21:52.508Z,14.59
2018-09-24T11:24:33.838Z,14.56
2018-09-24T11:27:08.965Z,14.62
2018-09-24T11:29:48.767Z,14.73
2018-09-24T11:32:24.016Z,14.80
2018-09-24T11:35:10.314Z,14.78
2018-09-24T11:37:50.064Z,14.60
2018-09-24T11:40:31.170Z,14.46
2018-09-24T11:43:12.012Z,14.48
2018-09-24T11:45:47.330Z,14.39
2018-09-24T11:48:27.357Z,14.46
2018-09-24T11:51:08.727Z,14.46
2018-09-24T11:53:42.966Z,14.35
2018-09-24T11:56:30.053Z,14.33
2018-09-24T11:59:08.025Z,14.30
2018-09-24T12:01:43.281Z,14.40
2018-09-24T12:04:17.488Z,14.34
2018-09-24T12:06:56.416Z,14.28
2018-09-24T12:09:34.503Z,14.35
2018-09-24T12:12:28.172Z,14.29
2018-09-24T12:15:02.543Z,14.21
2018-09-24T12:17:37.855Z,14.55
2018-09-24T12:20:24.789Z,14.44
2018-09-24T12:23:02.889Z,14.85
2018-09-24T12:25:40.864Z,14.77
2018-09-24T12:28:20.941Z,14.81
2018-09-24T12:31:01.049Z,14.82
2018-09-24T12:33:39.332Z,14.80
2018-09-24T12:36:15.747Z,14.67
2018-09-24T12:38:50.085Z,14.86
2018-09-24T12:41:24.388Z,14.77
2018-09-24T12:43:58.535Z,14.93
2018-09-24T12:46:39.500Z,15.03
2018-09-24T12:49:13.788Z,14.93
2018-09-24T12:51:53.874Z,14.90
2018-09-24T12:54:34.384Z,14.77
2018-09-24T12:57:10.690Z,14.69
2018-09-24T12:59:47.132Z,14.66
2018-09-24T13:02:21.220Z,14.71
2018-09-24T13:04:55.502Z,14.79
2018-09-24T13:07:29.667Z,14.91
2018-09-24T13:10:04.123Z,14.98
2018-09-24T13:12:43.065Z,15.08
2018-09-24T13:15:25.269Z,15.29
2018-09-24T13:18:00.576Z,15.42
2018-09-24T13:20:35.866Z,15.45
2018-09-24T13:23:10.287Z,15.29
2018-09-24T13:25:48.090Z,15.39
2018-09-24T13:28:28.847Z,15.39
2018-09-24T13:31:04.086Z,15.43
2018-09-24T13:33:39.500Z,15.49
2018-09-24T13:36:18.352Z,15.47
2018-09-24T13:38:57.437Z,15.44
2018-09-24T13:41:35.510Z,15.33
2018-09-24T13:44:11.737Z,15.46
2018-09-24T13:46:46.052Z,15.24
2018-09-24T13:49:30.411Z,15.31
2018-09-24T13:52:08.812Z,15.15
2018-09-24T13:54:44.148Z,15.42
2018-09-24T13:57:23.984Z,15.35
2018-09-24T13:59:59.252Z,15.27
2018-09-24T14:02:37.697Z,15.34
2018-09-24T14:05:12.219Z,15.32
2018-09-24T14:07:47.483Z,15.42
2018-09-24T14:10:28.191Z,15.31
2018-09-24T14:13:02.638Z,15.21
2018-09-24T14:15:36.889Z,15.29
2018-09-24T14:18:11.195Z,15.36
2018-09-24T14:20:46.463Z,15.47
2018-09-24T14:23:20.711Z,15.54
2018-09-24T14:25:56.158Z,15.64
2018-09-24T14:28:30.341Z,15.71
2018-09-24T14:31:10.202Z,15.69
2018-09-24T14:33:45.313Z,15.71
2018-09-24T14:36:20.647Z,15.60
2018-09-24T14:38:58.424Z,15.48
2018-09-24T14:41:36.368Z,15.44
2018-09-24T14:44:10.775Z,15.53
2018-09-24T14:46:51.996Z,15.47
2018-09-24T14:49:26.344Z,15.28
2018-09-24T14:52:06.253Z,15.18
2018-09-24T14:54:42.584Z,15.18
2018-09-24T14:57:18.036Z,15.25
2018-09-24T14:59:54.341Z,15.34
2018-09-24T15:02:33.956Z,15.36
2018-09-24T15:05:10.294Z,15.09
2018-09-24T15:07:44.774Z,15.07
2018-09-24T15:10:20.214Z,15.02
2018-09-24T15:12:54.613Z,14.91
2018-09-24T15:15:31.020Z,14.83
2018-09-24T15:18:10.440Z,14.42
2018-09-24T15:20:48.393Z,14.21
2018-09-24T15:23:26.471Z,14.29
2018-09-24T15:26:02.894Z,14.13
2018-09-24T15:28:40.953Z,14.06
2018-09-24T15:31:19.029Z,14.05
2018-09-24T15:33:54.332Z,13.99
2018-09-24T15:36:36.208Z,14.06
2018-09-24T15:39:22.450Z,14.19
2018-09-24T15:42:03.355Z,14.18
2018-09-24T15:44:38.665Z,14.46
2018-09-24T15:47:15.096Z,14.42
2018-09-24T15:49:56.875Z,14.39
2018-09-24T15:52:37.780Z,14.33
2018-09-24T15:55:15.353Z,14.31
2018-09-24T15:57:50.740Z,14.21
2018-09-24T16:00:25.143Z,14.34
2018-09-24T16:03:06.470Z,14.45
2018-09-24T16:05:41.720Z,14.32
2018-09-24T16:08:24.500Z,14.21
2018-09-24T16:11:06.486Z,14.17
2018-09-24T16:13:43.019Z,14.11
2018-09-24T16:16:17.392Z,14.10
2018-09-24T16:18:51.743Z,14.04
2018-09-24T16:21:26.966Z,14.08
2018-09-24T16:24:11.683Z,13.96
2018-09-24T16:26:46.123Z,13.96
2018-09-24T16:29:20.345Z,13.83
2018-09-24T16:32:11.743Z,13.69
2018-09-24T16:34:51.572Z,13.62
2018-09-24T16:37:26.019Z,13.79
2018-09-24T16:40:03.577Z,13.78
2018-09-24T16:42:38.180Z,13.66
2018-09-24T16:45:12.807Z,13.64
2018-09-24T16:47:47.231Z,13.61
2018-09-24T16:50:29.411Z,13.64
2018-09-24T16:53:08.843Z,13.70
2018-09-24T16:55:44.152Z,13.76
2018-09-24T16:58:20.379Z,13.72
2018-09-24T17:00:54.653Z,13.76
2018-09-24T17:03:30.000Z,13.69
2018-09-24T17:06:04.201Z,13.69
2018-09-24T17:08:38.495Z,13.73
2018-09-24T17:11:24.221Z,13.59
2018-09-24T17:14:04.974Z,13.63
2018-09-24T17:16:47.500Z,13.70
2018-09-24T17:19:27.641Z,13.61
2018-09-24T17:22:06.879Z,13.66
2018-09-24T17:24:41.211Z,13.70
2018-09-24T17:27:17.835Z,13.66
2018-09-24T17:29:55.983Z,13.56
2018-09-24T17:32:30.301Z,13.54
2018-09-24T17:35:07.957Z,13.55
2018-09-24T17:37:44.112Z,13.38
2018-09-24T17:40:20.407Z,13.36
2018-09-24T17:42:55.753Z,13.37
2018-09-24T17:45:31.268Z,13.35
2018-09-24T17:48:07.577Z,13.41
2018-09-24T17:50:51.706Z,13.36
2018-09-24T17:53:27.965Z,13.42
2018-09-24T17:56:10.465Z,13.33
2018-09-24T17:58:54.362Z,13.39
2018-09-24T18:01:33.993Z,13.41
2018-09-24T18:04:08.312Z,13.45
2018-09-24T18:06:46.174Z,13.28
2018-09-24T18:09:26.193Z,13.28
2018-09-24T18:12:00.327Z,13.01
2018-09-24T18:14:39.608Z,13.08
2018-09-24T18:17:13.940Z,13.07
2018-09-24T18:19:48.370Z,13.16
2018-09-24T18:22:26.602Z,13.20
2018-09-24T18:25:02.899Z,13.15
2018-09-24T18:27:37.195Z,13.16
2018-09-24T18:30:11.309Z,13.18
2018-09-24T18:32:50.263Z,13.27
2018-09-24T18:35:26.678Z,13.31
2018-09-24T18:38:06.104Z,13.35
2018-09-24T18:40:40.381Z,13.29
2018-09-24T18:43:16.781Z,13.34
2018-09-24T18:45:52.299Z,13.31
2018-09-24T18:48:30.563Z,13.38
2018-09-24T18:51:05.916Z,13.32
2018-09-24T18:53:42.195Z,13.32
2018-09-24T18:56:17.579Z,13.23
2018-09-24T18:58:55.042Z,13.26
2018-09-24T19:01:31.395Z,13.26
2018-09-24T19:04:05.778Z,13.21
2018-09-24T19:06:40.079Z,13.27
2018-09-24T19:09:14.616Z,13.24
2018-09-24T19:11:56.205Z,13.23
2018-09-24T19:14:30.486Z,13.20
2018-09-24T19:17:04.893Z,13.13
2018-09-24T19:19:42.894Z,13.00
2018-09-24T19:22:17.350Z,12.98
2018-09-24T19:24:52.917Z,13.02
2018-09-24T19:27:27.210Z,13.10
2018-09-24T19:30:01.466Z,12.97
2018-09-24T19:32:35.999Z,13.00
2018-09-24T19:35:10.334Z,13.03
2018-09-24T19:37:44.666Z,12.99
2018-09-24T19:40:22.750Z,13.01
2018-09-24T19:42:57.317Z,12.95
2018-09-24T19:45:32.632Z,12.98
2018-09-24T19:48:06.952Z,12.98
2018-09-24T19:50:41.298Z,12.93
2018-09-24T19:53:15.693Z,12.90
2018-09-24T19:55:50.004Z,12.90
2018-09-24T19:58:24.339Z,12.94
2018-09-24T20:00:59.874Z,12.90
2018-09-24T20:03:34.284Z,12.80
2018-09-24T20:06:19.514Z,12.80
2018-09-24T20:09:06.406Z,12.81
2018-09-24T20:11:46.523Z,12.74
2018-09-24T20:14:25.947Z,12.76
2018-09-24T20:17:05.923Z,12.66
2018-09-24T20:19:40.293Z,12.70
2018-09-24T20:22:15.580Z,12.74
2018-09-24T20:24:54.207Z,12.77
2018-09-24T20:27:29.675Z,12.76
2018-09-24T20:30:03.958Z,12.73
2018-09-24T20:32:38.366Z,12.64
2018-09-24T20:35:13.030Z,12.67
2018-09-24T20:37:53.537Z,12.67
2018-09-24T20:40:39.366Z,12.57
2018-09-24T20:43:13.644Z,12.44
2018-09-24T20:45:55.274Z,12.42
2018-09-24T20:48:33.749Z,12.39
2018-09-24T20:54:01.819Z,12.12
2018-09-24T20:56:46.029Z,12.09
2018-09-24T20:59:37.069Z,12.12
2018-09-24T21:02:11.387Z,11.97
2018-09-24T21:04:45.733Z,11.93
2018-09-24T21:07:25.521Z,11.86
2018-09-24T21:09:59.963Z,11.95
2018-09-24T21:12:34.247Z,11.84
2018-09-24T21:15:13.013Z,11.58
2018-09-24T21:17:47.339Z,11.67
2018-09-24T21:20:22.557Z,11.66
2018-09-24T21:22:56.987Z,11.61
2018-09-24T21:25:31.265Z,11.53
2018-09-24T21:28:07.428Z,11.43
2018-09-24T21:30:49.714Z,11.47
2018-09-24T21:33:24.034Z,11.34
2018-09-24T21:35:58.342Z,11.33
2018-09-24T21:38:33.812Z,11.23
2018-09-24T21:41:08.207Z,11.25
2018-09-24T21:43:43.565Z,11.28
2018-09-24T21:46:18.267Z,11.32
2018-09-24T21:49:02.082Z,11.10
2018-09-24T21:51:40.559Z,11.02
2018-09-24T21:54:21.003Z,10.88
2018-09-24T21:56:59.371Z,10.85
2018-09-24T21:59:37.352Z,10.80
2018-09-24T22:02:18.606Z,10.84
2018-09-24T22:04:55.968Z,10.88
2018-09-24T22:07:30.310Z,10.89
2018-09-24T22:10:04.764Z,10.71
2018-09-24T22:12:41.206Z,10.79
2018-09-24T22:15:15.541Z,10.84
2018-09-24T22:17:49.869Z,10.81
2018-09-24T22:20:24.098Z,10.76
2018-09-24T22:22:58.649Z,10.74
2018-09-24T22:25:32.945Z,10.64
2018-09-24T22:28:07.227Z,10.67
2018-09-24T22:30:41.538Z,10.55
2018-09-24T22:33:22.833Z,10.53
2018-09-24T22:36:02.856Z,10.50
2018-09-24T22:38:37.287Z,10.55
2018-09-24T22:41:23.412Z,10.54
2018-09-24T22:43:57.820Z,10.50
2018-09-24T22:46:36.064Z,10.51
2018-09-24T22:49:11.500Z,10.44
2018-09-24T22:51:45.822Z,10.48
2018-09-24T22:54:25.992Z,10.39
2018-09-24T22:57:00.256Z,10.30
2018-09-24T22:59:34.819Z,10.34
2018-09-24T23:02:16.502Z,10.32
2018-09-24T23:05:01.367Z,10.26
2018-09-24T23:07:35.803Z,10.17
2018-09-24T23:10:16.110Z,10.10
2018-09-24T23:12:56.206Z,10.12
2018-09-24T23:15:47.211Z,10.09
2018-09-24T23:18:25.943Z,10.15
2018-09-24T23:21:01.226Z,9.98
2018-09-24T23:23:35.566Z,10.09
2018-09-24T23:26:10.044Z,10.12
2018-09-24T23:28:48.308Z,9.98
2018-09-24T23:31:26.221Z,10.00
2018-09-24T23:34:18.688Z,9.96
2018-09-24T23:36:53.018Z,9.87
2018-09-24T23:39:27.169Z,9.75
2018-09-24T23:42:01.306Z,9.73
2018-09-24T23:44:35.613Z,9.62
2018-09-24T23:47:09.898Z,9.58
2018-09-24T23:49:44.372Z,9.50
2018-09-24T23:52:18.543Z,9.65
2018-09-24T23:54:52.903Z,9.57
2018-09-24T23:57:27.157Z,9.51
